sensor_id;sensor_type;location;lat;lon;timestamp;P1;durP1;ratioP1;P2;durP2;ratioP2
34978;SDS011;21185;50.978;13.720;2023-04-01T00:04:17;2.53;;;0.68;;
34978;SDS011;21185;50.978;13.720;2023-04-01T00:09:19;5.88;;;0.90;;
34978;SDS011;21185;50.978;13.720;2023-04-01T00:14:21;2.95;;;0.47;;
34978;SDS011;21185;50.978;13.720;2023-04-01T00:19:23;0.50;;;0.50;;
34978;SDS011;21185;50.978;13.720;2023-04-01T00:24:25;0.88;;;0.50;;
34978;SDS011;21185;50.978;13.720;2023-04-01T00:29:27;3.05;;;0.70;;
34978;SDS011;21185;50.978;13.720;2023-04-01T00:34:30;2.30;;;0.65;;
34978;SDS011;21185;50.978;13.720;2023-04-01T00:39:32;0.50;;;0.50;;
34978;SDS011;21185;50.978;13.720;2023-04-01T00:44:36;4.65;;;0.77;;
34978;SDS011;21185;50.978;13.720;2023-04-01T00:49:39;0.88;;;0.55;;
34978;SDS011;21185;50.978;13.720;2023-04-01T00:54:46;1.92;;;0.75;;
34978;SDS011;21185;50.978;13.720;2023-04-01T00:59:52;3.17;;;0.95;;
34978;SDS011;21185;50.978;13.720;2023-04-01T01:04:56;1.40;;;0.50;;
34978;SDS011;21185;50.978;13.720;2023-04-01T01:10:02;0.40;;;0.40;;
34978;SDS011;21185;50.978;13.720;2023-04-01T01:31:21;1.08;;;0.65;;
34978;SDS011;21185;50.978;13.720;2023-04-01T01:36:31;0.80;;;0.63;;
34978;SDS011;21185;50.978;13.720;2023-04-01T01:41:41;5.22;;;0.85;;
34978;SDS011;21185;50.978;13.720;2023-04-01T01:46:46;1.75;;;0.80;;
34978;SDS011;21185;50.978;13.720;2023-04-01T01:51:50;2.85;;;0.90;;
34978;SDS011;21185;50.978;13.720;2023-04-01T01:56:55;0.88;;;0.70;;
34978;SDS011;21185;50.978;13.720;2023-04-01T02:02:07;1.02;;;0.60;;
34978;SDS011;21185;50.978;13.720;2023-04-01T02:07:16;0.65;;;0.60;;
34978;SDS011;21185;50.978;13.720;2023-04-01T02:12:23;7.75;;;0.90;;
34978;SDS011;21185;50.978;13.720;2023-04-01T02:17:27;1.00;;;0.52;;
34978;SDS011;21185;50.978;13.720;2023-04-01T02:22:32;0.60;;;0.60;;
34978;SDS011;21185;50.978;13.720;2023-04-01T02:27:37;1.58;;;0.68;;
34978;SDS011;21185;50.978;13.720;2023-04-01T02:32:40;0.50;;;0.50;;
34978;SDS011;21185;50.978;13.720;2023-04-01T02:37:46;3.28;;;0.63;;
34978;SDS011;21185;50.978;13.720;2023-04-01T02:42:51;0.40;;;0.40;;
34978;SDS011;21185;50.978;13.720;2023-04-01T02:47:53;4.90;;;0.70;;
34978;SDS011;21185;50.978;13.720;2023-04-01T02:52:55;3.63;;;0.68;;
34978;SDS011;21185;50.978;13.720;2023-04-01T02:57:57;4.30;;;0.60;;
34978;SDS011;21185;50.978;13.720;2023-04-01T03:02:59;4.03;;;0.80;;
34978;SDS011;21185;50.978;13.720;2023-04-01T03:08:02;1.70;;;0.80;;
34978;SDS011;21185;50.978;13.720;2023-04-01T03:13:04;1.10;;;0.50;;
34978;SDS011;21185;50.978;13.720;2023-04-01T03:18:06;1.25;;;0.73;;
34978;SDS011;21185;50.978;13.720;2023-04-01T03:23:08;4.78;;;0.98;;
34978;SDS011;21185;50.978;13.720;2023-04-01T03:28:10;2.13;;;0.57;;
34978;SDS011;21185;50.978;13.720;2023-04-01T03:33:13;2.13;;;0.68;;
34978;SDS011;21185;50.978;13.720;2023-04-01T03:38:15;4.75;;;0.90;;
34978;SDS011;21185;50.978;13.720;2023-04-01T03:43:17;1.73;;;0.60;;
34978;SDS011;21185;50.978;13.720;2023-04-01T03:48:20;1.95;;;0.63;;
34978;SDS011;21185;50.978;13.720;2023-04-01T03:53:22;6.30;;;1.27;;
34978;SDS011;21185;50.978;13.720;2023-04-01T03:58:25;1.30;;;0.80;;
34978;SDS011;21185;50.978;13.720;2023-04-01T04:03:28;2.47;;;0.73;;
34978;SDS011;21185;50.978;13.720;2023-04-01T04:08:30;2.60;;;0.80;;
34978;SDS011;21185;50.978;13.720;2023-04-01T04:13:32;7.68;;;1.27;;
34978;SDS011;21185;50.978;13.720;2023-04-01T04:18:35;1.30;;;0.88;;
34978;SDS011;21185;50.978;13.720;2023-04-01T04:23:38;1.08;;;0.80;;
34978;SDS011;21185;50.978;13.720;2023-04-01T04:28:39;1.95;;;0.60;;
34978;SDS011;21185;50.978;13.720;2023-04-01T04:33:42;5.22;;;0.60;;
34978;SDS011;21185;50.978;13.720;2023-04-01T04:38:45;3.60;;;0.98;;
34978;SDS011;21185;50.978;13.720;2023-04-01T04:43:54;1.20;;;0.85;;
34978;SDS011;21185;50.978;13.720;2023-04-01T04:48:58;1.65;;;0.60;;
34978;SDS011;21185;50.978;13.720;2023-04-01T04:54:04;5.68;;;0.60;;
34978;SDS011;21185;50.978;13.720;2023-04-01T04:59:28;3.80;;;1.23;;
34978;SDS011;21185;50.978;13.720;2023-04-01T05:04:39;0.60;;;0.60;;
34978;SDS011;21185;50.978;13.720;2023-04-01T05:09:43;1.35;;;0.50;;
34978;SDS011;21185;50.978;13.720;2023-04-01T05:14:48;8.57;;;0.73;;
34978;SDS011;21185;50.978;13.720;2023-04-01T05:19:50;0.60;;;0.60;;
34978;SDS011;21185;50.978;13.720;2023-04-01T05:24:51;0.75;;;0.50;;
34978;SDS011;21185;50.978;13.720;2023-04-01T05:29:54;2.30;;;0.50;;
34978;SDS011;21185;50.978;13.720;2023-04-01T05:35:12;1.55;;;0.70;;
34978;SDS011;21185;50.978;13.720;2023-04-01T05:40:14;3.38;;;0.88;;
34978;SDS011;21185;50.978;13.720;2023-04-01T05:45:17;2.03;;;0.63;;
34978;SDS011;21185;50.978;13.720;2023-04-01T05:50:40;1.05;;;0.60;;
34978;SDS011;21185;50.978;13.720;2023-04-01T05:55:44;1.23;;;0.50;;
34978;SDS011;21185;50.978;13.720;2023-04-01T06:00:47;1.85;;;0.60;;
34978;SDS011;21185;50.978;13.720;2023-04-01T06:06:11;4.55;;;0.93;;
34978;SDS011;21185;50.978;13.720;2023-04-01T06:11:29;2.38;;;0.60;;
34978;SDS011;21185;50.978;13.720;2023-04-01T06:32:31;0.45;;;0.40;;
34978;SDS011;21185;50.978;13.720;2023-04-01T06:43:25;3.92;;;0.50;;
34978;SDS011;21185;50.978;13.720;2023-04-01T07:01:14;1.08;;;0.50;;
34978;SDS011;21185;50.978;13.720;2023-04-01T07:11:48;2.08;;;0.90;;
34978;SDS011;21185;50.978;13.720;2023-04-01T07:17:30;0.60;;;0.60;;
34978;SDS011;21185;50.978;13.720;2023-04-01T07:22:39;3.40;;;0.55;;
34978;SDS011;21185;50.978;13.720;2023-04-01T07:27:56;0.98;;;0.60;;
34978;SDS011;21185;50.978;13.720;2023-04-01T07:33:23;3.72;;;0.50;;
34978;SDS011;21185;50.978;13.720;2023-04-01T08:00:57;2.28;;;0.65;;
34978;SDS011;21185;50.978;13.720;2023-04-01T08:06:17;2.65;;;0.70;;
34978;SDS011;21185;50.978;13.720;2023-04-01T08:11:33;1.48;;;0.70;;
34978;SDS011;21185;50.978;13.720;2023-04-01T08:17:05;3.63;;;0.80;;
34978;SDS011;21185;50.978;13.720;2023-04-01T08:33:28;1.98;;;0.50;;
34978;SDS011;21185;50.978;13.720;2023-04-01T08:38:59;1.30;;;0.52;;
34978;SDS011;21185;50.978;13.720;2023-04-01T08:49:32;0.95;;;0.40;;
34978;SDS011;21185;50.978;13.720;2023-04-01T09:00:49;0.90;;;0.45;;
34978;SDS011;21185;50.978;13.720;2023-04-01T09:11:52;0.88;;;0.50;;
34978;SDS011;21185;50.978;13.720;2023-04-01T09:55:12;1.75;;;0.60;;
34978;SDS011;21185;50.978;13.720;2023-04-01T10:00:32;0.32;;;0.32;;
34978;SDS011;21185;50.978;13.720;2023-04-01T10:17:00;0.57;;;0.43;;
34978;SDS011;21185;50.978;13.720;2023-04-01T10:33:54;0.40;;;0.40;;
34978;SDS011;21185;50.978;13.720;2023-04-01T11:33:46;0.43;;;0.40;;
34978;SDS011;21185;50.978;13.720;2023-04-01T11:39:13;3.13;;;0.50;;
34978;SDS011;21185;50.978;13.720;2023-04-01T11:44:38;1.38;;;0.57;;
34978;SDS011;21185;50.978;13.720;2023-04-01T12:18:09;1.02;;;0.40;;
34978;SDS011;21185;50.978;13.720;2023-04-01T12:55:48;1.25;;;0.90;;
34978;SDS011;21185;50.978;13.720;2023-04-01T13:16:39;0.30;;;0.30;;
34978;SDS011;21185;50.978;13.720;2023-04-01T13:22:07;0.47;;;0.30;;
34978;SDS011;21185;50.978;13.720;2023-04-01T13:32:41;0.85;;;0.40;;
34978;SDS011;21185;50.978;13.720;2023-04-01T13:43:22;0.77;;;0.47;;
34978;SDS011;21185;50.978;13.720;2023-04-01T14:04:33;1.02;;;0.50;;
34978;SDS011;21185;50.978;13.720;2023-04-01T14:26:29;0.55;;;0.50;;
34978;SDS011;21185;50.978;13.720;2023-04-01T14:37:25;0.47;;;0.40;;
34978;SDS011;21185;50.978;13.720;2023-04-01T14:42:38;0.30;;;0.30;;
34978;SDS011;21185;50.978;13.720;2023-04-01T14:48:00;0.30;;;0.30;;
34978;SDS011;21185;50.978;13.720;2023-04-01T15:03:58;0.45;;;0.38;;
34978;SDS011;21185;50.978;13.720;2023-04-01T15:31:12;0.57;;;0.52;;
34978;SDS011;21185;50.978;13.720;2023-04-01T15:41:50;0.35;;;0.32;;
34978;SDS011;21185;50.978;13.720;2023-04-01T15:47:34;0.50;;;0.40;;
34978;SDS011;21185;50.978;13.720;2023-04-01T15:53:00;0.60;;;0.50;;
34978;SDS011;21185;50.978;13.720;2023-04-01T16:25:20;0.47;;;0.40;;
34978;SDS011;21185;50.978;13.720;2023-04-01T16:30:56;0.82;;;0.60;;
34978;SDS011;21185;50.978;13.720;2023-04-01T16:36:19;0.68;;;0.32;;
34978;SDS011;21185;50.978;13.720;2023-04-01T16:41:48;2.00;;;1.60;;
34978;SDS011;21185;50.978;13.720;2023-04-01T16:46:54;2.88;;;1.40;;
34978;SDS011;21185;50.978;13.720;2023-04-01T16:52:00;0.50;;;0.50;;
34978;SDS011;21185;50.978;13.720;2023-04-01T16:57:17;1.15;;;0.75;;
34978;SDS011;21185;50.978;13.720;2023-04-01T17:02:51;0.75;;;0.60;;
34978;SDS011;21185;50.978;13.720;2023-04-01T17:08:09;0.73;;;0.60;;
34978;SDS011;21185;50.978;13.720;2023-04-01T17:19:10;1.02;;;0.73;;
34978;SDS011;21185;50.978;13.720;2023-04-01T17:45:33;4.07;;;2.00;;
34978;SDS011;21185;50.978;13.720;2023-04-01T18:01:18;6.93;;;3.63;;
34978;SDS011;21185;50.978;13.720;2023-04-01T18:12:09;2.30;;;1.40;;
34978;SDS011;21185;50.978;13.720;2023-04-01T18:17:27;3.67;;;2.00;;
34978;SDS011;21185;50.978;13.720;2023-04-01T18:23:12;6.82;;;3.28;;
34978;SDS011;21185;50.978;13.720;2023-04-01T18:39:22;5.43;;;1.63;;
34978;SDS011;21185;50.978;13.720;2023-04-01T18:45:09;2.15;;;1.38;;
34978;SDS011;21185;50.978;13.720;2023-04-01T18:55:36;5.63;;;2.67;;
34978;SDS011;21185;50.978;13.720;2023-04-01T19:00:42;5.07;;;2.85;;
34978;SDS011;21185;50.978;13.720;2023-04-01T19:05:51;7.57;;;2.45;;
34978;SDS011;21185;50.978;13.720;2023-04-01T19:10:57;14.07;;;4.82;;
34978;SDS011;21185;50.978;13.720;2023-04-01T19:16:17;7.10;;;3.35;;
34978;SDS011;21185;50.978;13.720;2023-04-01T19:21:33;8.77;;;3.88;;
34978;SDS011;21185;50.978;13.720;2023-04-01T19:26:40;6.38;;;2.90;;
34978;SDS011;21185;50.978;13.720;2023-04-01T19:43:11;5.82;;;2.58;;
34978;SDS011;21185;50.978;13.720;2023-04-01T20:04:27;3.72;;;1.67;;
34978;SDS011;21185;50.978;13.720;2023-04-01T20:09:46;3.75;;;1.50;;
34978;SDS011;21185;50.978;13.720;2023-04-01T20:14:51;2.22;;;1.30;;
34978;SDS011;21185;50.978;13.720;2023-04-01T20:20:21;2.65;;;1.50;;
34978;SDS011;21185;50.978;13.720;2023-04-01T20:25:26;1.55;;;1.10;;
34978;SDS011;21185;50.978;13.720;2023-04-01T20:36:04;1.48;;;0.80;;
34978;SDS011;21185;50.978;13.720;2023-04-01T20:46:57;1.90;;;1.17;;
34978;SDS011;21185;50.978;13.720;2023-04-01T20:52:17;1.80;;;1.02;;
34978;SDS011;21185;50.978;13.720;2023-04-01T21:08:38;4.13;;;1.35;;
34978;SDS011;21185;50.978;13.720;2023-04-01T21:19:20;2.05;;;1.30;;
34978;SDS011;21185;50.978;13.720;2023-04-01T21:30:19;2.45;;;1.38;;
34978;SDS011;21185;50.978;13.720;2023-04-01T21:35:43;2.42;;;1.70;;
34978;SDS011;21185;50.978;13.720;2023-04-01T21:52:10;1.80;;;1.10;;
34978;SDS011;21185;50.978;13.720;2023-04-01T22:03:44;2.63;;;1.98;;
34978;SDS011;21185;50.978;13.720;2023-04-01T22:14:13;6.93;;;4.25;;
34978;SDS011;21185;50.978;13.720;2023-04-01T22:19:30;6.95;;;4.05;;
34978;SDS011;21185;50.978;13.720;2023-04-01T22:25:29;5.82;;;3.03;;
34978;SDS011;21185;50.978;13.720;2023-04-01T22:30:31;5.82;;;2.67;;
34978;SDS011;21185;50.978;13.720;2023-04-01T22:35:54;2.03;;;1.40;;
34978;SDS011;21185;50.978;13.720;2023-04-01T22:41:44;1.15;;;1.00;;
34978;SDS011;21185;50.978;13.720;2023-04-01T22:46:53;0.73;;;0.73;;
34978;SDS011;21185;50.978;13.720;2023-04-01T23:03:00;2.85;;;1.10;;
34978;SDS011;21185;50.978;13.720;2023-04-01T23:13:50;2.00;;;1.33;;
34978;SDS011;21185;50.978;13.720;2023-04-01T23:19:02;3.05;;;1.85;;
34978;SDS011;21185;50.978;13.720;2023-04-01T23:29:40;3.08;;;1.65;;
34978;SDS011;21185;50.978;13.720;2023-04-01T23:34:51;3.47;;;1.98;;
34978;SDS011;21185;50.978;13.720;2023-04-01T23:40:15;2.72;;;1.88;;
34978;SDS011;21185;50.978;13.720;2023-04-01T23:45:19;4.60;;;2.38;;
34978;SDS011;21185;50.978;13.720;2023-04-01T23:50:23;3.40;;;2.17;;
34978;SDS011;21185;50.978;13.720;2023-04-01T23:55:29;5.50;;;2.58;;
